createdAt,value
2018-02-10T00:01:19.256Z,17.40
2018-02-10T00:03:47.293Z,17.20
2018-02-10T00:06:16.214Z,17.00
2018-02-10T00:08:44.210Z,17.00
2018-02-10T00:11:12.224Z,17.20
2018-02-10T00:13:40.425Z,17.20
2018-02-10T00:16:09.192Z,17.10
2018-02-10T00:18:37.938Z,17.00
2018-02-10T00:21:06.098Z,17.00
2018-02-10T00:23:34.146Z,17.00
2018-02-10T00:26:02.941Z,16.90
2018-02-10T00:28:31.110Z,16.90
2018-02-10T00:30:59.909Z,16.90
2018-02-10T00:33:27.982Z,16.90
2018-02-10T00:35:56.274Z,16.80
2018-02-10T00:38:24.268Z,16.90
2018-02-10T00:40:52.530Z,16.80
2018-02-10T00:43:20.643Z,16.90
2018-02-10T00:45:48.659Z,16.90
2018-02-10T00:48:16.658Z,16.70
2018-02-10T00:50:44.764Z,16.80
2018-02-10T00:53:12.770Z,16.80
2018-02-10T00:55:40.764Z,16.80
2018-02-10T00:58:08.877Z,16.80
2018-02-10T01:00:36.909Z,16.70
2018-02-10T01:03:04.928Z,16.80
2018-02-10T01:05:33.076Z,16.80
2018-02-10T01:08:01.074Z,16.80
2018-02-10T01:10:29.366Z,16.70
2018-02-10T01:12:58.272Z,16.60
2018-02-10T01:15:26.274Z,16.60
2018-02-10T01:17:54.305Z,16.60
2018-02-10T01:20:23.165Z,16.60
2018-02-10T01:22:51.194Z,16.50
2018-02-10T01:25:19.198Z,16.50
2018-02-10T01:27:47.332Z,16.40
2018-02-10T01:30:15.328Z,16.40
2018-02-10T01:32:43.348Z,16.20
2018-02-10T01:35:12.196Z,16.40
2018-02-10T01:37:40.322Z,16.40
2018-02-10T01:40:09.088Z,16.60
2018-02-10T01:42:37.347Z,16.60
2018-02-10T01:45:05.391Z,16.60
2018-02-10T01:47:33.433Z,16.40
2018-02-10T01:50:13.784Z,16.40
2018-02-10T01:52:42.616Z,16.30
2018-02-10T01:55:10.612Z,16.30
2018-02-10T01:57:38.670Z,16.20
2018-02-10T02:00:06.981Z,16.30
2018-02-10T02:02:34.989Z,16.30
2018-02-10T02:05:03.122Z,16.30
2018-02-10T02:07:31.126Z,16.30
2018-02-10T02:09:59.859Z,16.30
2018-02-10T02:12:28.052Z,16.30
2018-02-10T02:14:56.097Z,16.30
2018-02-10T02:17:24.106Z,16.40
2018-02-10T02:19:52.215Z,16.30
2018-02-10T02:22:20.220Z,16.30
2018-02-10T02:24:48.254Z,16.20
2018-02-10T02:27:16.418Z,16.20
2018-02-10T02:29:45.147Z,16.20
2018-02-10T02:32:14.041Z,16.20
2018-02-10T02:34:42.174Z,16.20
2018-02-10T02:37:10.938Z,16.30
2018-02-10T02:39:39.084Z,16.20
2018-02-10T02:42:07.269Z,16.20
2018-02-10T02:44:35.292Z,16.30
2018-02-10T02:47:04.045Z,16.20
2018-02-10T02:49:32.221Z,16.20
2018-02-10T02:52:00.330Z,16.20
2018-02-10T02:54:28.384Z,16.10
2018-02-10T02:56:57.297Z,16.10
2018-02-10T02:59:25.298Z,16.10
2018-02-10T03:01:53.398Z,16.10
2018-02-10T03:04:21.528Z,16.00
2018-02-10T03:06:49.743Z,16.10
2018-02-10T03:09:17.781Z,16.00
2018-02-10T03:11:45.987Z,16.00
2018-02-10T03:14:13.983Z,16.20
2018-02-10T03:16:41.990Z,16.10
2018-02-10T03:19:10.131Z,16.20
2018-02-10T03:21:38.237Z,16.30
2018-02-10T03:24:06.236Z,16.30
2018-02-10T03:26:34.361Z,16.20
2018-02-10T03:29:03.100Z,16.30
2018-02-10T03:31:31.168Z,16.30
2018-02-10T03:33:59.306Z,16.40
2018-02-10T03:36:28.036Z,16.40
2018-02-10T03:38:56.145Z,16.40
2018-02-10T03:41:24.530Z,16.30
2018-02-10T03:43:53.436Z,16.30
2018-02-10T03:46:22.221Z,16.40
2018-02-10T03:48:51.126Z,16.30
2018-02-10T03:51:19.978Z,16.40
2018-02-10T03:53:47.985Z,16.40
2018-02-10T03:56:16.922Z,16.20
2018-02-10T03:58:44.948Z,16.30
2018-02-10T04:01:14.256Z,16.30
2018-02-10T04:03:42.460Z,16.10
2018-02-10T04:06:10.460Z,16.20
2018-02-10T04:08:38.500Z,16.40
2018-02-10T04:11:06.646Z,16.30
2018-02-10T04:13:35.415Z,16.60
2018-02-10T04:16:03.438Z,16.50
2018-02-10T04:18:31.613Z,16.60
2018-02-10T04:20:59.619Z,16.70
2018-02-10T04:23:27.612Z,16.60
2018-02-10T04:25:56.488Z,16.80
2018-02-10T04:28:24.503Z,16.70
2018-02-10T04:30:52.609Z,16.80
2018-02-10T04:33:20.760Z,16.70
2018-02-10T04:35:48.749Z,16.80
2018-02-10T04:38:16.790Z,16.80
2018-02-10T04:40:44.915Z,17.00
2018-02-10T04:43:13.178Z,17.00
2018-02-10T04:45:42.017Z,17.00
2018-02-10T04:48:10.910Z,17.10
2018-02-10T04:50:39.750Z,17.10
2018-02-10T04:53:07.786Z,17.10
2018-02-10T04:55:35.948Z,17.20
2018-02-10T04:58:04.689Z,17.30
2018-02-10T05:00:32.698Z,17.20
2018-02-10T05:03:01.552Z,17.50
2018-02-10T05:05:29.544Z,17.50
2018-02-10T05:07:57.562Z,17.50
2018-02-10T05:10:25.702Z,17.70
2018-02-10T05:12:54.457Z,17.50
2018-02-10T05:15:22.448Z,17.50
2018-02-10T05:17:50.599Z,17.60
2018-02-10T05:20:18.641Z,17.50
2018-02-10T05:22:46.641Z,17.80
2018-02-10T05:25:14.808Z,17.90
2018-02-10T05:27:42.854Z,18.10
2018-02-10T05:30:10.863Z,18.10
2018-02-10T05:32:39.044Z,18.10
2018-02-10T05:35:07.040Z,18.60
2018-02-10T05:37:35.042Z,18.50
2018-02-10T05:40:03.168Z,18.60
2018-02-10T05:42:31.211Z,18.80
2018-02-10T05:44:59.374Z,19.90
2018-02-10T05:47:28.303Z,21.00
2018-02-10T05:49:56.311Z,21.00
2018-02-10T05:52:25.040Z,22.10
2018-02-10T05:54:53.231Z,22.00
2018-02-10T05:57:22.082Z,22.30
2018-02-10T05:59:50.091Z,22.40
2018-02-10T06:02:18.241Z,22.40
2018-02-10T06:04:46.250Z,22.30
2018-02-10T06:07:14.281Z,22.30
2018-02-10T06:09:42.384Z,22.10
2018-02-10T06:12:10.418Z,22.10
2018-02-10T06:14:38.448Z,22.20
2018-02-10T06:17:06.585Z,22.40
2018-02-10T06:19:34.586Z,22.30
2018-02-10T06:22:02.780Z,22.40
2018-02-10T06:24:30.922Z,22.30
2018-02-10T06:26:58.937Z,22.50
2018-02-10T06:29:27.716Z,22.60
2018-02-10T06:31:55.990Z,22.50
2018-02-10T06:34:24.033Z,22.80
2018-02-10T06:36:52.061Z,23.20
2018-02-10T06:39:21.021Z,24.80
2018-02-10T06:41:49.271Z,24.80
2018-02-10T06:44:17.362Z,26.20
2018-02-10T06:46:45.678Z,27.00
2018-02-10T06:49:14.475Z,26.90
2018-02-10T06:51:42.576Z,26.80
2018-02-10T06:54:10.758Z,26.10
2018-02-10T06:56:38.817Z,25.40
2018-02-10T06:59:06.829Z,25.10
2018-02-10T07:01:35.413Z,25.00
2018-02-10T07:04:03.426Z,24.60
2018-02-10T07:06:31.435Z,24.60
2018-02-10T07:08:59.679Z,24.50
2018-02-10T07:11:27.747Z,24.30
2018-02-10T07:13:55.795Z,24.30
2018-02-10T07:16:24.694Z,24.30
2018-02-10T07:18:53.478Z,24.40
2018-02-10T07:21:22.338Z,24.50
2018-02-10T07:23:50.461Z,24.50
2018-02-10T07:26:19.241Z,24.30
2018-02-10T07:28:48.010Z,24.40
2018-02-10T07:31:16.128Z,24.40
2018-02-10T07:33:44.170Z,24.60
2018-02-10T07:36:12.917Z,24.80
2018-02-10T07:38:41.118Z,24.80
2018-02-10T07:41:09.271Z,25.00
2018-02-10T07:43:37.272Z,24.80
2018-02-10T07:46:05.437Z,24.90
2018-02-10T07:48:33.590Z,25.00
2018-02-10T07:51:01.665Z,25.00
2018-02-10T07:53:29.862Z,25.20
2018-02-10T07:55:57.860Z,25.10
2018-02-10T07:58:26.588Z,25.20
2018-02-10T08:00:54.791Z,25.30
2018-02-10T08:03:22.788Z,26.00
2018-02-10T08:05:51.571Z,26.10
2018-02-10T08:08:20.487Z,25.80
2018-02-10T08:10:48.536Z,25.70
2018-02-10T08:13:17.276Z,25.70
2018-02-10T08:15:45.414Z,25.70
2018-02-10T08:18:14.160Z,25.50
2018-02-10T08:20:42.230Z,25.50
2018-02-10T08:23:10.368Z,25.40
2018-02-10T08:25:38.385Z,25.40
2018-02-10T08:28:07.395Z,25.30
2018-02-10T08:30:35.521Z,25.30
2018-02-10T08:33:03.516Z,25.40
2018-02-10T08:35:31.563Z,25.40
2018-02-10T08:37:59.734Z,25.30
2018-02-10T08:40:27.732Z,25.20
2018-02-10T08:42:55.746Z,25.20
2018-02-10T08:45:24.697Z,25.40
2018-02-10T08:47:52.732Z,25.40
2018-02-10T08:50:20.892Z,25.40
2018-02-10T08:52:49.786Z,25.50
2018-02-10T08:55:18.571Z,25.30
2018-02-10T08:57:47.359Z,25.10
2018-02-10T09:00:16.281Z,25.10
2018-02-10T09:02:44.494Z,25.10
2018-02-10T09:05:12.492Z,25.10
2018-02-10T09:07:41.446Z,25.00
2018-02-10T09:10:09.506Z,25.00
2018-02-10T09:12:37.551Z,25.10
2018-02-10T09:15:05.692Z,24.90
2018-02-10T09:17:34.721Z,24.90
2018-02-10T09:20:02.720Z,24.90
2018-02-10T09:22:30.853Z,25.00
2018-02-10T09:24:59.614Z,24.80
2018-02-10T09:27:27.661Z,24.80
2018-02-10T09:29:55.822Z,24.90
2018-02-10T09:32:23.830Z,25.10
2018-02-10T09:34:51.870Z,25.30
2018-02-10T09:37:20.173Z,25.40
2018-02-10T09:39:48.215Z,25.30
2018-02-10T09:42:16.269Z,25.40
2018-02-10T09:44:44.441Z,25.40
2018-02-10T09:47:13.288Z,25.40
2018-02-10T09:49:41.288Z,25.10
2018-02-10T09:52:10.419Z,25.20
2018-02-10T09:54:38.469Z,25.20
2018-02-10T09:57:07.981Z,25.20
2018-02-10T09:59:36.183Z,25.20
2018-02-10T10:02:04.294Z,25.30
2018-02-10T10:04:32.356Z,25.20
2018-02-10T10:07:00.508Z,25.10
2018-02-10T10:09:28.526Z,25.10
2018-02-10T10:11:57.361Z,25.10
2018-02-10T10:14:25.513Z,25.10
2018-02-10T10:16:53.552Z,25.10
2018-02-10T10:19:21.605Z,25.20
2018-02-10T10:21:49.855Z,25.00
2018-02-10T10:24:17.873Z,25.10
2018-02-10T10:26:46.051Z,25.10
2018-02-10T10:29:14.220Z,25.10
2018-02-10T10:31:43.273Z,25.10
2018-02-10T10:34:11.268Z,25.10
2018-02-10T10:36:39.554Z,24.90
2018-02-10T10:39:07.717Z,24.80
2018-02-10T10:41:36.085Z,24.90
2018-02-10T10:44:04.258Z,25.00
2018-02-10T10:46:32.536Z,25.00
2018-02-10T10:49:00.883Z,24.80
2018-02-10T10:51:29.230Z,24.70
2018-02-10T10:53:57.605Z,24.80
2018-02-10T10:56:25.878Z,24.80
2018-02-10T10:58:54.172Z,24.90
2018-02-10T11:01:22.367Z,24.80
2018-02-10T11:03:51.243Z,24.60
2018-02-10T11:06:20.341Z,24.60
2018-02-10T11:08:48.443Z,24.60
2018-02-10T11:11:16.517Z,24.80
2018-02-10T11:13:44.665Z,24.60
2018-02-10T11:16:13.459Z,24.40
2018-02-10T11:18:42.218Z,24.20
2018-02-10T11:21:10.372Z,24.10
2018-02-10T11:23:38.367Z,24.20
2018-02-10T11:26:07.644Z,24.30
2018-02-10T11:28:40.298Z,24.20
2018-02-10T11:31:08.527Z,24.10
2018-02-10T11:33:37.685Z,24.00
2018-02-10T11:36:06.961Z,24.00
2018-02-10T11:38:35.024Z,24.00
2018-02-10T11:41:04.620Z,24.00
2018-02-10T11:43:32.744Z,24.00
2018-02-10T11:46:01.120Z,24.10
2018-02-10T11:48:29.165Z,24.10
2018-02-10T11:50:58.169Z,24.00
2018-02-10T11:53:26.192Z,24.00
2018-02-10T11:55:54.383Z,24.00
2018-02-10T11:58:23.448Z,23.90
2018-02-10T12:00:52.361Z,23.90
2018-02-10T12:03:20.937Z,23.90
2018-02-10T12:05:49.847Z,23.80
2018-02-10T12:08:17.904Z,23.80
2018-02-10T12:10:45.914Z,23.90
2018-02-10T12:13:14.790Z,23.80
2018-02-10T12:15:42.793Z,23.70
2018-02-10T12:18:10.795Z,23.70
2018-02-10T12:20:38.937Z,23.60
2018-02-10T12:23:07.244Z,23.60
2018-02-10T12:25:36.708Z,23.70
2018-02-10T12:28:05.764Z,23.70
2018-02-10T12:30:33.872Z,23.60
2018-02-10T12:33:02.066Z,23.60
2018-02-10T12:35:30.327Z,23.60
2018-02-10T12:37:59.212Z,23.40
2018-02-10T12:40:28.050Z,23.40
2018-02-10T12:42:56.400Z,23.40
2018-02-10T12:45:25.188Z,23.30
2018-02-10T12:48:12.835Z,23.30
2018-02-10T12:50:40.838Z,23.30
2018-02-10T12:53:08.864Z,23.30
2018-02-10T12:55:37.738Z,23.20
2018-02-10T12:58:06.648Z,23.20
2018-02-10T13:00:35.419Z,23.10
2018-02-10T13:03:04.293Z,23.10
2018-02-10T13:05:32.284Z,23.10
2018-02-10T13:08:01.060Z,23.00
2018-02-10T13:10:29.414Z,23.00
2018-02-10T13:12:57.408Z,23.00
2018-02-10T13:15:25.406Z,23.00
2018-02-10T13:17:54.290Z,22.90
2018-02-10T13:20:23.043Z,22.90
2018-02-10T13:22:51.073Z,22.90
2018-02-10T13:25:19.230Z,22.80
2018-02-10T13:27:48.014Z,22.80
2018-02-10T13:30:16.817Z,22.80
2018-02-10T13:32:45.775Z,22.70
2018-02-10T13:35:13.902Z,22.70
2018-02-10T13:37:41.950Z,22.70
2018-02-10T13:40:10.849Z,22.60
2018-02-10T13:42:39.667Z,22.50
2018-02-10T13:45:07.698Z,22.50
2018-02-10T13:47:36.608Z,22.40
2018-02-10T13:50:04.599Z,22.40
2018-02-10T13:52:32.748Z,22.30
2018-02-10T13:55:00.933Z,22.30
2018-02-10T13:57:29.077Z,22.30
2018-02-10T13:59:57.261Z,22.30
2018-02-10T14:02:25.545Z,22.20
2018-02-10T14:04:53.612Z,22.30
2018-02-10T14:07:22.395Z,22.20
2018-02-10T14:09:51.301Z,22.10
2018-02-10T14:12:20.059Z,22.20
2018-02-10T14:14:48.102Z,22.20
2018-02-10T14:17:16.278Z,22.10
2018-02-10T14:19:44.270Z,22.00
2018-02-10T14:22:12.455Z,22.10
2018-02-10T14:24:41.611Z,22.20
2018-02-10T14:27:09.635Z,22.00
2018-02-10T14:29:38.386Z,22.00
2018-02-10T14:32:06.570Z,22.00
2018-02-10T14:34:34.581Z,22.00
2018-02-10T14:37:03.313Z,21.80
2018-02-10T14:39:31.472Z,21.80
2018-02-10T14:41:59.684Z,21.80
2018-02-10T14:44:27.689Z,21.90
2018-02-10T14:46:56.567Z,21.80
2018-02-10T14:49:24.608Z,21.80
2018-02-10T14:51:52.693Z,21.90
2018-02-10T14:54:20.816Z,21.80
2018-02-10T14:56:49.553Z,21.70
2018-02-10T14:59:17.662Z,21.60
2018-02-10T15:01:46.714Z,21.70
2018-02-10T15:04:15.603Z,21.70
2018-02-10T15:06:43.627Z,21.70
2018-02-10T15:09:12.552Z,21.60
2018-02-10T15:11:40.609Z,21.60
2018-02-10T15:14:08.618Z,21.60
2018-02-10T15:16:36.774Z,21.50
2018-02-10T15:19:05.416Z,21.50
2018-02-10T15:21:34.253Z,21.50
2018-02-10T15:24:02.438Z,21.50
2018-02-10T15:26:30.588Z,21.50
2018-02-10T15:29:00.133Z,21.50
2018-02-10T15:31:43.778Z,21.50
2018-02-10T15:34:24.543Z,21.50
2018-02-10T15:36:53.262Z,21.50
2018-02-10T15:39:22.060Z,21.50
2018-02-10T15:41:53.053Z,21.50
2018-02-10T15:44:21.060Z,21.50
2018-02-10T15:46:49.086Z,21.40
2018-02-10T15:49:17.277Z,21.40
2018-02-10T15:51:45.308Z,21.30
2018-02-10T15:54:13.318Z,21.30
2018-02-10T15:56:41.487Z,21.40
2018-02-10T15:59:09.508Z,21.40
2018-02-10T16:01:39.286Z,21.40
2018-02-10T16:04:07.945Z,21.40
2018-02-10T16:06:36.042Z,21.40
2018-02-10T16:09:04.377Z,21.40
2018-02-10T16:11:32.592Z,21.40
2018-02-10T16:14:00.636Z,21.40
2018-02-10T16:16:30.316Z,21.40
2018-02-10T16:18:59.226Z,21.40
2018-02-10T16:21:27.210Z,21.40
2018-02-10T16:23:55.191Z,21.40
2018-02-10T16:26:23.336Z,21.40
2018-02-10T16:28:52.138Z,21.40
2018-02-10T16:31:20.263Z,21.40
2018-02-10T16:33:48.407Z,21.40
2018-02-10T16:36:16.404Z,21.40
2018-02-10T16:38:44.549Z,21.30
2018-02-10T16:41:12.762Z,21.30
2018-02-10T16:43:40.756Z,21.30
2018-02-10T16:46:09.622Z,21.20
2018-02-10T16:48:37.762Z,21.20
2018-02-10T16:51:05.809Z,21.30
2018-02-10T16:53:34.610Z,21.30
2018-02-10T16:56:02.776Z,21.30
2018-02-10T16:58:30.981Z,21.30
2018-02-10T17:01:04.437Z,21.30
2018-02-10T17:03:33.257Z,21.30
2018-02-10T17:06:01.579Z,21.30
2018-02-10T17:08:29.934Z,21.30
2018-02-10T17:10:57.987Z,21.20
2018-02-10T17:13:26.244Z,21.20
2018-02-10T17:15:55.010Z,21.10
2018-02-10T17:18:24.231Z,21.00
2018-02-10T17:20:53.300Z,21.10
2018-02-10T17:23:21.515Z,21.10
2018-02-10T17:28:58.331Z,21.00
2018-02-10T17:31:30.541Z,21.00
2018-02-10T17:51:30.769Z,21.00
2018-02-10T17:54:02.219Z,20.90
2018-02-10T17:56:30.970Z,20.80
2018-02-10T17:59:00.375Z,20.80
2018-02-10T18:01:28.698Z,20.90
2018-02-10T18:03:56.743Z,20.90
2018-02-10T18:06:25.022Z,20.80
2018-02-10T18:08:53.079Z,20.80
2018-02-10T18:11:22.096Z,20.80
2018-02-10T18:13:50.560Z,20.80
2018-02-10T18:16:20.886Z,20.80
2018-02-10T18:18:54.337Z,20.80
2018-02-10T18:21:26.360Z,20.90
2018-02-10T18:23:54.772Z,20.80
2018-02-10T18:26:26.717Z,20.80
2018-02-10T18:28:55.941Z,20.80
2018-02-10T18:31:29.057Z,20.80
2018-02-10T18:33:57.512Z,20.80
2018-02-10T18:36:27.844Z,20.70
2018-02-10T18:38:56.167Z,20.50
2018-02-10T18:41:28.636Z,20.50
2018-02-10T18:43:57.410Z,20.50
2018-02-10T18:46:27.040Z,20.40
2018-02-10T18:48:55.086Z,20.40
2018-02-10T18:51:23.201Z,20.30
2018-02-10T18:53:51.208Z,20.40
2018-02-10T18:56:20.234Z,20.40
2018-02-10T18:58:49.030Z,20.20
2018-02-10T19:01:17.841Z,20.30
2018-02-10T19:03:45.907Z,20.30
2018-02-10T19:06:13.948Z,20.20
2018-02-10T19:08:42.130Z,20.20
2018-02-10T19:11:11.022Z,20.00
2018-02-10T19:13:39.804Z,20.10
2018-02-10T19:16:07.816Z,20.10
2018-02-10T19:18:35.949Z,20.10
2018-02-10T19:21:03.962Z,20.10
2018-02-10T19:23:31.960Z,20.10
2018-02-10T19:28:42.471Z,20.10
2018-02-10T19:31:13.490Z,20.10
2018-02-10T19:36:47.596Z,20.00
2018-02-10T19:40:01.856Z,19.90
2018-02-10T19:42:53.423Z,19.90
2018-02-10T19:45:31.977Z,19.80
2018-02-10T19:51:08.275Z,19.70
2018-02-10T19:54:01.954Z,19.60
